Time;durP1;ratioP1;P1;durP2;ratioP2;P2;SDS_P1;SDS_P2;PMS_P1;PMS_P2;Temp;Humidity;BMP_temperature;BMP_pressure;BME280_temperature;BME280_humidity;BME280_pressure;Samples;Min_cycle;Max_cycle;Signal;HPM_P1;HPM_P2
2023/09/03 00:01:11;;;;;;;20.92;14.00;;;17.20;99.90;;;;;;5010479;28;20032;-79
2023/09/03 00:03:37;;;;;;;21.10;13.23;;;17.20;99.90;;;;;;5005971;28;20017;-78
2023/09/03 00:06:03;;;;;;;22.40;14.63;;;17.10;99.90;;;;;;5008748;28;20036;-78
2023/09/03 00:08:31;;;;;;;19.83;13.43;;;17.10;99.90;;;;;;5009391;28;20491;-79
2023/09/03 00:10:57;;;;;;;23.48;13.73;;;17.10;99.90;;;;;;5009009;28;20018;-79
2023/09/03 00:13:22;;;;;;;22.80;13.00;;;17.10;99.90;;;;;;5008227;28;20399;-79
2023/09/03 00:15:48;;;;;;;22.30;14.20;;;17.10;99.90;;;;;;4992355;28;20150;-79
2023/09/03 00:18:16;;;;;;;19.50;12.48;;;17.20;99.90;;;;;;5007145;28;20423;-78
2023/09/03 00:20:57;;;;;;;18.20;13.10;;;17.20;99.90;;;;;;5008305;28;20438;-79
2023/09/03 00:23:23;;;;;;;17.80;12.38;;;17.20;99.90;;;;;;4991304;28;20022;-79
2023/09/03 00:25:49;;;;;;;19.63;12.85;;;17.20;99.90;;;;;;5008238;28;20105;-78
2023/09/03 00:28:17;;;;;;;17.25;12.43;;;17.20;99.90;;;;;;5007989;28;20030;-79
2023/09/03 00:30:42;;;;;;;18.08;12.35;;;17.20;99.90;;;;;;5008778;28;20042;-78
2023/09/03 00:33:08;;;;;;;21.95;13.40;;;17.10;99.90;;;;;;5008518;28;20399;-78
2023/09/03 00:35:36;;;;;;;18.98;12.43;;;17.10;99.90;;;;;;4990830;28;20052;-78
2023/09/03 00:38:02;;;;;;;20.92;12.90;;;17.10;99.90;;;;;;5007480;28;20028;-78
2023/09/03 00:40:27;;;;;;;20.65;13.30;;;17.00;99.90;;;;;;5008233;28;20437;-79
2023/09/03 00:42:53;;;;;;;22.52;13.27;;;16.90;99.90;;;;;;5007198;28;20100;-82
2023/09/03 00:45:21;;;;;;;20.00;13.88;;;16.80;99.90;;;;;;5007467;28;20141;-78
2023/09/03 00:47:47;;;;;;;18.65;13.50;;;16.70;99.90;;;;;;5007917;28;20036;-78
2023/09/03 00:50:16;;;;;;;27.60;14.60;;;16.70;99.90;;;;;;5009014;28;20108;-78
2023/09/03 00:52:41;;;;;;;26.23;14.25;;;16.60;99.90;;;;;;5006821;28;20042;-78
2023/09/03 00:55:07;;;;;;;20.77;14.27;;;16.70;99.90;;;;;;5012715;28;20162;-78
2023/09/03 00:57:33;;;;;;;24.33;14.13;;;16.70;99.90;;;;;;5016674;28;20104;-78
2023/09/03 00:59:59;;;;;;;22.40;14.02;;;16.70;99.90;;;;;;4992736;28;20025;-78
2023/09/03 01:02:25;;;;;;;22.98;14.18;;;16.60;99.90;;;;;;5007792;28;20022;-78
2023/09/03 01:04:51;;;;;;;22.58;14.38;;;16.60;99.90;;;;;;5007559;28;20084;-78
2023/09/03 01:07:19;;;;;;;20.83;14.15;;;16.50;99.90;;;;;;4990495;28;20742;-78
2023/09/03 01:09:45;;;;;;;21.08;13.82;;;16.50;99.90;;;;;;5008218;28;20026;-78
2023/09/03 01:12:35;;;;;;;21.58;14.00;;;16.50;99.90;;;;;;5008109;28;20030;-78
2023/09/03 01:15:15;;;;;;;19.40;13.48;;;16.50;99.90;;;;;;5006653;28;20128;-78
2023/09/03 01:18:01;;;;;;;19.33;12.85;;;16.50;99.90;;;;;;4989313;28;20026;-79
2023/09/03 01:20:38;;;;;;;20.15;12.15;;;16.50;99.90;;;;;;4989658;28;20036;-78
2023/09/03 01:23:28;;;;;;;20.95;12.73;;;16.50;99.90;;;;;;5007712;28;20508;-78
2023/09/03 01:26:07;;;;;;;16.10;12.10;;;16.50;99.90;;;;;;5006139;28;20485;-78
2023/09/03 01:28:39;;;;;;;17.63;12.30;;;16.50;99.90;;;;;;5006403;28;20022;-79
2023/09/03 01:31:26;;;;;;;19.70;12.75;;;16.50;99.90;;;;;;5008054;28;20041;-78
2023/09/03 01:34:01;;;;;;;18.55;12.20;;;16.50;99.90;;;;;;5006597;28;20018;-78
2023/09/03 01:36:28;;;;;;;21.35;12.80;;;16.40;99.90;;;;;;5008486;28;20572;-79
2023/09/03 01:38:54;;;;;;;18.20;12.65;;;16.40;99.90;;;;;;4988717;28;20026;-79
2023/09/03 01:41:20;;;;;;;19.25;12.32;;;16.40;99.90;;;;;;5008498;28;20375;-78
2023/09/03 01:43:45;;;;;;;20.80;13.90;;;16.40;99.90;;;;;;4988899;28;20041;-78
2023/09/03 01:46:22;;;;;;;18.83;12.55;;;16.40;99.90;;;;;;4983133;28;20399;-78
2023/09/03 01:49:02;;;;;;;18.50;12.48;;;16.40;99.90;;;;;;5004949;28;20029;-79
2023/09/03 01:51:44;;;;;;;19.45;12.13;;;16.40;99.90;;;;;;5006535;28;20109;-78
2023/09/03 01:54:25;;;;;;;19.48;12.18;;;16.40;99.90;;;;;;5006417;28;20041;-78
2023/09/03 01:57:04;;;;;;;21.95;12.98;;;16.40;99.90;;;;;;5007672;28;20026;-78
2023/09/03 01:59:45;;;;;;;20.08;12.30;;;16.40;99.90;;;;;;5005079;28;20018;-79
2023/09/03 02:02:12;;;;;;;15.80;11.95;;;16.40;99.90;;;;;;4990826;28;20018;-79
2023/09/03 02:04:39;;;;;;;20.10;12.43;;;16.40;99.90;;;;;;4988918;28;20473;-78
2023/09/03 02:07:04;;;;;;;20.98;12.15;;;16.40;99.90;;;;;;5008689;28;20108;-78
2023/09/03 02:09:31;;;;;;;17.90;12.93;;;16.30;99.90;;;;;;5004537;28;20522;-79
2023/09/03 02:11:57;;;;;;;19.58;12.55;;;16.40;99.90;;;;;;4985652;28;20084;-79
2023/09/03 02:14:26;;;;;;;19.17;12.25;;;16.40;99.90;;;;;;5009793;28;20037;-78
2023/09/03 02:16:52;;;;;;;17.05;12.38;;;16.40;99.90;;;;;;5002326;28;20018;-78
2023/09/03 02:19:18;;;;;;;19.38;12.85;;;16.30;99.90;;;;;;4992852;28;20048;-79
2023/09/03 02:21:44;;;;;;;15.95;12.48;;;16.30;99.90;;;;;;4996716;28;20030;-79
2023/09/03 02:24:09;;;;;;;18.85;12.77;;;16.30;99.90;;;;;;5032258;28;20017;-78
2023/09/03 02:26:42;;;;;;;19.65;13.77;;;16.20;99.90;;;;;;5032232;28;20038;-78
2023/09/03 02:29:08;;;;;;;18.95;12.63;;;16.10;99.90;;;;;;5016908;28;20014;-77
2023/09/03 02:31:34;;;;;;;19.58;13.25;;;16.00;99.90;;;;;;5010462;28;20410;-78
2023/09/03 02:33:59;;;;;;;23.52;13.63;;;16.00;99.90;;;;;;5013795;28;20018;-78
2023/09/03 02:36:25;;;;;;;21.02;12.77;;;15.90;99.90;;;;;;5016278;28;20018;-78
2023/09/03 02:39:06;;;;;;;19.80;12.13;;;15.80;99.90;;;;;;5009454;28;20026;-77
2023/09/03 02:41:33;;;;;;;20.48;13.50;;;15.80;99.90;;;;;;5012163;28;20413;-78
2023/09/03 02:44:03;;;;;;;20.45;14.13;;;15.70;99.90;;;;;;4989358;28;20038;-78
2023/09/03 02:46:28;;;;;;;23.23;12.90;;;15.70;99.90;;;;;;5009206;28;20053;-78
2023/09/03 02:48:54;;;;;;;17.13;13.05;;;15.70;99.90;;;;;;5008277;28;20061;-78
2023/09/03 02:51:20;;;;;;;22.70;13.93;;;15.70;99.90;;;;;;5010797;28;20101;-77
2023/09/03 02:53:47;;;;;;;20.30;14.13;;;15.70;99.90;;;;;;5009678;28;20105;-78
2023/09/03 02:56:14;;;;;;;25.05;13.63;;;15.60;99.90;;;;;;4989993;28;20077;-77
2023/09/03 02:58:40;;;;;;;17.65;13.10;;;15.60;99.90;;;;;;4987917;28;20461;-78
2023/09/03 03:01:14;;;;;;;22.00;13.80;;;15.60;99.90;;;;;;5010397;28;20018;-78
2023/09/03 03:03:44;;;;;;;21.63;13.57;;;15.50;99.90;;;;;;5017435;28;20024;-78
2023/09/03 03:06:10;;;;;;;20.88;13.93;;;15.50;99.90;;;;;;5016265;28;20110;-78
2023/09/03 03:08:36;;;;;;;21.73;14.32;;;15.40;99.90;;;;;;5012178;28;20026;-78
2023/09/03 03:11:11;;;;;;;22.48;13.75;;;15.40;99.90;;;;;;4992438;28;20026;-78
2023/09/03 03:13:41;;;;;;;21.80;14.38;;;15.40;99.90;;;;;;4992707;28;20342;-77
2023/09/03 03:16:09;;;;;;;19.60;13.82;;;15.30;99.90;;;;;;4987091;28;20026;-78
2023/09/03 03:18:38;;;;;;;20.02;14.00;;;15.30;99.90;;;;;;5008967;28;20022;-78
2023/09/03 03:21:08;;;;;;;20.55;14.13;;;15.30;99.90;;;;;;5010764;28;20037;-78
2023/09/03 03:23:35;;;;;;;21.10;13.90;;;15.20;99.90;;;;;;4991842;28;20532;-77
2023/09/03 03:26:02;;;;;;;18.13;13.40;;;15.30;99.90;;;;;;5008174;28;20053;-78
2023/09/03 03:28:30;;;;;;;23.15;13.10;;;15.20;99.90;;;;;;4998928;28;20029;-77
2023/09/03 03:30:56;;;;;;;30.20;13.68;;;15.30;99.90;;;;;;4989902;28;20026;-77
2023/09/03 03:33:21;;;;;;;21.30;13.90;;;15.30;99.90;;;;;;5009120;28;20662;-78
2023/09/03 03:35:47;;;;;;;19.42;14.57;;;15.30;99.90;;;;;;5009451;28;20497;-78
2023/09/03 03:38:12;;;;;;;23.20;14.07;;;15.30;99.90;;;;;;5009603;28;20042;-78
2023/09/03 03:40:38;;;;;;;19.33;14.18;;;15.30;99.90;;;;;;5008002;28;20490;-78
2023/09/03 03:43:04;;;;;;;20.88;14.70;;;15.20;99.90;;;;;;4989118;28;20029;-77
2023/09/03 03:45:33;;;;;;;18.80;14.52;;;15.10;99.90;;;;;;5010395;28;20028;-78
2023/09/03 03:48:01;;;;;;;19.83;13.50;;;15.20;99.90;;;;;;5007897;28;20026;-78
2023/09/03 03:50:29;;;;;;;20.80;13.60;;;15.20;99.90;;;;;;5009472;28;20033;-77
2023/09/03 03:52:55;;;;;;;21.05;13.88;;;15.30;99.90;;;;;;5009574;28;20351;-78
2023/09/03 03:55:21;;;;;;;25.08;14.25;;;15.20;99.90;;;;;;4982637;28;20024;-77
2023/09/03 03:57:47;;;;;;;22.00;14.05;;;15.20;99.90;;;;;;4983346;28;20118;-78
2023/09/03 04:00:13;;;;;;;18.75;13.85;;;15.20;99.90;;;;;;5005102;28;20356;-78
2023/09/03 04:02:41;;;;;;;17.13;13.48;;;15.10;99.90;;;;;;5007497;28;20026;-78
2023/09/03 04:05:07;;;;;;;17.27;12.93;;;15.00;99.90;;;;;;5007276;28;20025;-77
2023/09/03 04:07:33;;;;;;;20.45;14.10;;;15.00;99.90;;;;;;4988111;28;20032;-78
2023/09/03 04:09:59;;;;;;;25.80;14.82;;;14.90;99.90;;;;;;4990705;28;20036;-78
2023/09/03 04:12:27;;;;;;;22.55;14.07;;;14.90;99.90;;;;;;5007125;28;20036;-78
2023/09/03 04:14:53;;;;;;;19.38;13.90;;;14.90;99.90;;;;;;5009378;28;20022;-78
2023/09/03 04:17:18;;;;;;;21.48;14.95;;;14.90;99.90;;;;;;5006475;28;20026;-78
2023/09/03 04:19:47;;;;;;;21.10;14.52;;;14.90;99.90;;;;;;5008037;28;20050;-78
2023/09/03 04:22:13;;;;;;;19.50;14.48;;;14.90;99.90;;;;;;5007926;28;20037;-78
2023/09/03 04:24:41;;;;;;;27.55;14.55;;;14.90;99.90;;;;;;4990658;28;20552;-77
2023/09/03 04:27:06;;;;;;;22.27;13.77;;;14.90;99.90;;;;;;5007960;28;20034;-78
2023/09/03 04:29:32;;;;;;;22.83;14.35;;;14.90;99.90;;;;;;5005999;28;20026;-78
2023/09/03 04:31:58;;;;;;;24.95;15.18;;;14.90;99.90;;;;;;4989761;28;20496;-78
2023/09/03 04:34:24;;;;;;;25.63;15.63;;;14.80;99.90;;;;;;5007470;28;20022;-77
2023/09/03 04:36:52;;;;;;;19.08;14.07;;;14.80;99.90;;;;;;4990011;28;20056;-77
2023/09/03 04:39:18;;;;;;;26.98;15.32;;;14.80;99.90;;;;;;5008345;28;20029;-78
2023/09/03 04:41:43;;;;;;;22.77;15.13;;;14.80;99.90;;;;;;5007892;28;20088;-77
2023/09/03 04:44:12;;;;;;;25.20;15.73;;;14.80;99.90;;;;;;5007563;28;20018;-78
2023/09/03 04:46:38;;;;;;;24.15;15.73;;;14.80;99.90;;;;;;5008055;28;20053;-78
2023/09/03 04:49:04;;;;;;;23.67;15.35;;;14.80;99.90;;;;;;5006189;28;20512;-78
2023/09/03 04:51:29;;;;;;;22.35;14.13;;;14.80;99.90;;;;;;5008799;28;20044;-78
2023/09/03 04:53:55;;;;;;;24.63;15.63;;;14.90;99.90;;;;;;5007520;28;20026;-78
2023/09/03 04:56:20;;;;;;;22.35;14.80;;;14.90;99.90;;;;;;4995780;28;20022;-78
2023/09/03 04:58:46;;;;;;;21.92;15.73;;;14.80;99.90;;;;;;5008306;28;20022;-77
2023/09/03 05:01:17;;;;;;;22.38;16.30;;;14.80;99.90;;;;;;5008325;28;20034;-78
2023/09/03 05:03:43;;;;;;;26.13;15.38;;;14.70;99.90;;;;;;4990847;28;20033;-78
2023/09/03 05:06:15;;;;;;;25.92;16.08;;;14.70;99.90;;;;;;4991456;28;20224;-79
2023/09/03 05:08:42;;;;;;;26.02;15.02;;;14.70;99.90;;;;;;5005883;28;20028;-79
2023/09/03 05:11:11;;;;;;;29.90;16.02;;;14.70;99.90;;;;;;5006899;28;20100;-80
2023/09/03 05:13:37;;;;;;;18.70;14.60;;;14.80;99.90;;;;;;4990904;28;20120;-79
2023/09/03 05:16:04;;;;;;;20.95;14.90;;;14.80;99.90;;;;;;5013560;28;20029;-79
2023/09/03 05:18:30;;;;;;;22.27;15.13;;;14.80;99.90;;;;;;5010528;28;20482;-79
2023/09/03 05:20:56;;;;;;;22.65;14.75;;;14.80;99.90;;;;;;5013860;28;20617;-79
2023/09/03 05:23:22;;;;;;;20.35;15.07;;;14.80;99.90;;;;;;4996157;28;20026;-79
2023/09/03 05:25:49;;;;;;;22.92;15.20;;;14.90;99.90;;;;;;4986682;28;20382;-78
2023/09/03 05:28:15;;;;;;;23.15;16.02;;;14.90;99.90;;;;;;5005522;28;20105;-78
2023/09/03 05:30:40;;;;;;;24.95;14.98;;;14.90;99.90;;;;;;4994224;28;20553;-79
2023/09/03 05:33:06;;;;;;;23.00;16.10;;;14.90;99.90;;;;;;5006292;28;20038;-79
2023/09/03 05:35:32;;;;;;;27.30;16.45;;;15.00;99.90;;;;;;5007487;28;20026;-79
2023/09/03 05:37:57;;;;;;;24.20;16.17;;;15.00;99.90;;;;;;5006301;28;20359;-79
2023/09/03 05:40:23;;;;;;;25.65;15.18;;;15.00;99.90;;;;;;5008107;28;20011;-79
2023/09/03 05:42:48;;;;;;;19.08;15.07;;;15.10;99.90;;;;;;5007739;28;20086;-79
2023/09/03 05:45:16;;;;;;;21.20;15.60;;;15.10;99.90;;;;;;4988112;28;20109;-79
2023/09/03 05:47:42;;;;;;;25.60;15.98;;;15.10;99.90;;;;;;5008038;28;20064;-79
2023/09/03 05:50:08;;;;;;;22.88;15.50;;;15.10;99.90;;;;;;4991117;28;20058;-79
2023/09/03 05:52:33;;;;;;;23.42;16.15;;;15.10;99.90;;;;;;4988228;28;20041;-78
2023/09/03 05:54:59;;;;;;;23.83;16.42;;;15.10;99.90;;;;;;5008415;28;20018;-78
2023/09/03 05:57:24;;;;;;;26.58;16.08;;;15.20;99.90;;;;;;4996907;28;20026;-79
2023/09/03 05:59:51;;;;;;;24.52;15.80;;;15.20;99.90;;;;;;4991685;28;20065;-79
2023/09/03 06:02:17;;;;;;;22.42;15.95;;;15.30;99.90;;;;;;5011313;28;20026;-79
2023/09/03 06:04:43;;;;;;;23.38;15.73;;;15.40;99.90;;;;;;4992562;28;20037;-79
2023/09/03 06:07:09;;;;;;;22.50;16.05;;;15.50;99.90;;;;;;4994121;28;20018;-79
2023/09/03 06:09:38;;;;;;;25.77;16.58;;;15.60;99.90;;;;;;5009969;28;20024;-79
2023/09/03 06:12:04;;;;;;;25.13;16.98;;;15.60;99.90;;;;;;5011733;28;20034;-79
2023/09/03 06:14:30;;;;;;;26.02;17.08;;;15.70;99.90;;;;;;4993884;28;20029;-79
2023/09/03 06:16:56;;;;;;;23.20;16.35;;;15.70;99.90;;;;;;5011583;28;20022;-79
2023/09/03 06:19:22;;;;;;;23.90;16.40;;;15.70;99.90;;;;;;4996310;28;20018;-79
2023/09/03 06:21:48;;;;;;;24.17;16.70;;;15.80;99.90;;;;;;5009165;28;20044;-79
2023/09/03 06:24:15;;;;;;;22.02;16.58;;;15.90;99.90;;;;;;4990036;28;20030;-79
2023/09/03 06:26:41;;;;;;;22.38;17.15;;;15.90;99.90;;;;;;5010343;28;20055;-78
2023/09/03 06:29:07;;;;;;;28.52;17.80;;;15.90;99.90;;;;;;5008193;28;20030;-79
2023/09/03 06:31:33;;;;;;;23.83;16.20;;;15.90;99.90;;;;;;5009736;28;20042;-79
2023/09/03 06:33:58;;;;;;;23.27;17.15;;;16.00;99.90;;;;;;4993144;28;20026;-79
2023/09/03 06:36:25;;;;;;;24.42;17.65;;;16.00;99.90;;;;;;5015757;28;20029;-79
2023/09/03 06:38:51;;;;;;;24.48;17.33;;;16.00;99.90;;;;;;5031221;28;20026;-79
2023/09/03 06:41:16;;;;;;;23.98;16.60;;;16.20;99.90;;;;;;5026034;28;20179;-79
2023/09/03 06:43:42;;;;;;;23.50;17.08;;;16.20;99.90;;;;;;5031187;28;20056;-79
2023/09/03 06:46:08;;;;;;;26.58;18.00;;;16.20;99.90;;;;;;5031175;28;20030;-78
2023/09/03 06:48:34;;;;;;;26.75;17.70;;;16.20;99.90;;;;;;4991160;28;20386;-79
2023/09/03 06:51:00;;;;;;;23.10;16.20;;;16.20;99.90;;;;;;4988914;28;20040;-78
2023/09/03 06:53:25;;;;;;;21.45;16.25;;;16.30;99.90;;;;;;5011150;28;20080;-79
2023/09/03 06:55:52;;;;;;;22.27;15.50;;;16.30;99.90;;;;;;5008039;28;20062;-79
2023/09/03 06:58:17;;;;;;;23.85;16.17;;;16.40;99.90;;;;;;4987779;28;20073;-78
2023/09/03 07:00:43;;;;;;;19.33;15.57;;;16.40;99.90;;;;;;4998060;28;20512;-78
2023/09/03 07:03:09;;;;;;;21.23;15.35;;;16.50;99.90;;;;;;5001440;28;20125;-79
2023/09/03 07:05:35;;;;;;;32.50;15.88;;;16.60;99.90;;;;;;5008903;28;20021;-79
2023/09/03 07:08:00;;;;;;;24.45;15.60;;;16.70;99.90;;;;;;5009689;28;20030;-79
2023/09/03 07:10:26;;;;;;;24.80;15.93;;;16.80;99.90;;;;;;5006755;28;20018;-79
2023/09/03 07:12:52;;;;;;;20.42;14.77;;;16.90;99.90;;;;;;4992882;28;20066;-79
2023/09/03 07:15:17;;;;;;;23.00;14.77;;;17.00;99.90;;;;;;4990756;28;20022;-78
2023/09/03 07:17:43;;;;;;;27.90;16.00;;;17.10;99.90;;;;;;4993248;28;20121;-77
2023/09/03 07:20:09;;;;;;;20.33;14.68;;;17.20;99.90;;;;;;4988063;28;20032;-79
2023/09/03 07:22:37;;;;;;;24.67;15.93;;;17.20;99.90;;;;;;5007754;28;20445;-77
2023/09/03 07:25:05;;;;;;;26.88;15.27;;;17.40;99.90;;;;;;5008081;28;20030;-78
2023/09/03 07:27:33;;;;;;;24.20;15.02;;;17.40;99.90;;;;;;5015575;28;20041;-79
2023/09/03 07:29:59;;;;;;;19.52;14.13;;;17.50;99.90;;;;;;5015985;28;20034;-78
2023/09/03 07:32:25;;;;;;;23.15;15.55;;;17.60;99.90;;;;;;4997808;28;20038;-79
2023/09/03 07:34:50;;;;;;;20.08;15.65;;;17.70;99.90;;;;;;5009340;28;20056;-78
2023/09/03 07:37:17;;;;;;;23.25;15.15;;;17.90;99.90;;;;;;5008158;28;20026;-78
2023/09/03 07:39:43;;;;;;;19.45;14.65;;;18.00;99.90;;;;;;4994345;28;20049;-78
2023/09/03 07:42:11;;;;;;;29.27;18.67;;;18.10;99.90;;;;;;5009524;28;20474;-82
2023/09/03 07:44:39;;;;;;;21.55;15.48;;;18.20;99.90;;;;;;4993006;28;20014;-78
2023/09/03 07:47:05;;;;;;;21.40;15.13;;;18.40;99.90;;;;;;4989666;28;20023;-78
2023/09/03 07:49:31;;;;;;;19.70;14.75;;;18.50;99.90;;;;;;5007980;28;20025;-79
2023/09/03 07:51:56;;;;;;;19.20;14.60;;;18.60;99.90;;;;;;4990072;28;20044;-79
2023/09/03 07:54:22;;;;;;;17.63;13.77;;;18.60;99.90;;;;;;5009808;28;20104;-78
2023/09/03 07:56:50;;;;;;;20.85;14.43;;;18.60;99.90;;;;;;4997373;28;20033;-78
2023/09/03 07:59:15;;;;;;;19.50;13.90;;;18.70;99.90;;;;;;5010638;28;20041;-79
2023/09/03 08:01:43;;;;;;;19.90;13.77;;;18.70;99.90;;;;;;5009268;28;20060;-79
2023/09/03 08:04:09;;;;;;;20.48;14.27;;;18.80;99.90;;;;;;5008390;28;20461;-78
2023/09/03 08:06:37;;;;;;;20.35;13.95;;;18.80;99.90;;;;;;5009072;28;20080;-79
2023/09/03 08:09:03;;;;;;;19.80;14.07;;;18.80;99.90;;;;;;5009106;28;20030;-79
2023/09/03 08:11:28;;;;;;;23.30;13.88;;;18.80;99.90;;;;;;4991721;28;20109;-80
2023/09/03 08:13:59;;;;;;;16.65;13.15;;;19.00;99.90;;;;;;5000879;28;20120;-79
2023/09/03 08:16:24;;;;;;;19.63;14.05;;;19.10;99.90;;;;;;5007598;28;20025;-80
2023/09/03 08:18:50;;;;;;;19.83;15.07;;;19.20;99.90;;;;;;5008382;28;20673;-81
2023/09/03 08:21:16;;;;;;;147.48;75.35;;;19.40;99.90;;;;;;4975389;28;20047;-81
2023/09/03 08:23:42;;;;;;;51.13;24.88;;;19.50;99.90;;;;;;4964665;28;20034;-79
2023/09/03 08:26:08;;;;;;;21.00;14.35;;;19.60;99.90;;;;;;4966985;28;20455;-79
2023/09/03 08:28:34;;;;;;;18.52;14.30;;;19.80;99.90;;;;;;4967941;28;21310;-80
2023/09/03 08:30:59;;;;;;;25.25;16.20;;;20.00;99.90;;;;;;4967527;28;20506;-80
2023/09/03 08:33:25;;;;;;;24.52;16.63;;;20.00;99.90;;;;;;4967597;28;20130;-79
2023/09/03 08:35:51;;;;;;;25.17;17.15;;;20.10;99.90;;;;;;4969177;28;20471;-79
2023/09/03 08:38:17;;;;;;;25.40;18.42;;;20.10;99.90;;;;;;4969313;28;20038;-79
2023/09/03 08:40:43;;;;;;;24.60;16.85;;;20.20;99.90;;;;;;4967321;28;20142;-79
2023/09/03 08:43:11;;;;;;;23.10;16.58;;;20.30;99.90;;;;;;4968952;28;20066;-78
2023/09/03 08:45:49;;;;;;;25.02;17.15;;;20.50;99.90;;;;;;4966340;28;20057;-79
2023/09/03 08:48:16;;;;;;;24.63;17.30;;;20.50;99.90;;;;;;4965436;28;20151;-79
2023/09/03 08:50:45;;;;;;;32.28;22.08;;;20.50;99.90;;;;;;4967404;28;20070;-78
2023/09/03 08:53:11;;;;;;;27.38;19.40;;;20.60;99.90;;;;;;4967261;28;20086;-79
2023/09/03 08:55:39;;;;;;;27.92;19.95;;;20.60;99.90;;;;;;4966467;28;20050;-79
2023/09/03 08:58:05;;;;;;;35.17;23.30;;;20.80;99.90;;;;;;4967036;28;20031;-81
2023/09/03 09:00:32;;;;;;;93.55;47.53;;;21.00;99.90;;;;;;4967356;28;20262;-78
2023/09/03 09:03:01;;;;;;;38.40;27.88;;;21.30;99.90;;;;;;4966289;28;20388;-77
2023/09/03 09:05:27;;;;;;;32.85;23.90;;;21.60;99.90;;;;;;4967677;28;20029;-79
2023/09/03 09:07:54;;;;;;;43.20;25.88;;;21.80;99.90;;;;;;4969888;28;20045;-80
2023/09/03 09:10:25;;;;;;;31.45;22.75;;;22.10;99.90;;;;;;4967181;28;20025;-79
2023/09/03 09:12:56;;;;;;;32.50;22.83;;;22.50;99.90;;;;;;4968593;28;20035;-79
2023/09/03 09:15:22;;;;;;;28.50;21.15;;;22.80;99.90;;;;;;4965353;28;20019;-79
2023/09/03 09:17:48;;;;;;;31.08;23.48;;;22.80;99.90;;;;;;4969451;28;20427;-79
2023/09/03 09:20:15;;;;;;;35.03;24.58;;;23.10;99.90;;;;;;4968349;28;20026;-79
2023/09/03 09:22:42;;;;;;;28.58;21.63;;;23.10;99.90;;;;;;4969914;28;20019;-79
2023/09/03 09:25:09;;;;;;;27.17;21.25;;;23.40;99.90;;;;;;4969477;28;20027;-79
2023/09/03 09:27:38;;;;;;;28.98;20.73;;;23.40;99.90;;;;;;4968586;28;20525;-79
2023/09/03 09:30:15;;;;;;;26.55;20.30;;;23.50;99.90;;;;;;4970029;28;20041;-79
2023/09/03 09:32:43;;;;;;;27.13;18.88;;;23.80;99.90;;;;;;4968320;28;20070;-79
2023/09/03 09:35:09;;;;;;;27.20;18.48;;;24.20;98.40;;;;;;4969660;28;20033;-79
2023/09/03 09:37:41;;;;;;;18.80;15.55;;;24.70;97.80;;;;;;4971204;28;20022;-81
2023/09/03 09:40:08;;;;;;;526.10;265.50;;;24.80;95.50;;;;;;4972778;28;20037;-80
2023/09/03 09:42:50;;;;;;;23.52;14.80;;;24.90;94.60;;;;;;4969408;28;20039;-79
2023/09/03 09:45:16;;;;;;;27.55;17.58;;;25.10;93.70;;;;;;4972197;28;20453;-79
2023/09/03 09:47:42;;;;;;;18.50;13.30;;;25.10;93.60;;;;;;4972044;28;20114;-79
2023/09/03 09:50:08;;;;;;;14.70;12.27;;;25.30;93.40;;;;;;4969653;28;20034;-79
2023/09/03 09:52:36;;;;;;;16.35;12.98;;;25.70;94.40;;;;;;4972241;28;20070;-79
2023/09/03 09:55:02;;;;;;;17.83;13.10;;;25.90;92.10;;;;;;4972369;28;20089;-79
2023/09/03 09:57:28;;;;;;;18.60;13.77;;;26.10;92.00;;;;;;4965029;28;20027;-79
2023/09/03 10:00:01;;;;;;;13.73;12.32;;;26.10;92.60;;;;;;4980125;28;20386;-78
2023/09/03 10:02:29;;;;;;;14.57;11.52;;;25.90;90.20;;;;;;4977163;28;20022;-78
2023/09/03 10:04:56;;;;;;;17.10;12.38;;;25.90;90.00;;;;;;4981475;28;20034;-79
2023/09/03 10:07:25;;;;;;;16.23;11.95;;;25.80;89.60;;;;;;4972247;28;20023;-79
2023/09/03 10:09:51;;;;;;;11.85;10.07;;;25.80;90.30;;;;;;4971378;28;20131;-79
2023/09/03 10:12:16;;;;;;;11.30;9.38;;;25.70;89.20;;;;;;4971462;28;20579;-80
2023/09/03 10:14:42;;;;;;;199.93;105.53;;;25.60;87.90;;;;;;4972642;28;20030;-79
2023/09/03 10:17:10;;;;;;;14.77;10.20;;;25.50;87.30;;;;;;4972951;28;20034;-80
2023/09/03 10:19:51;;;;;;;13.30;9.90;;;25.40;86.40;;;;;;4971063;28;20491;-80
2023/09/03 10:22:19;;;;;;;16.27;11.02;;;25.30;86.40;;;;;;4969598;28;20483;-80
2023/09/03 10:24:50;;;;;;;9.90;7.80;;;25.30;90.20;;;;;;4971256;28;20030;-80
2023/09/03 10:27:21;;;;;;;13.10;7.95;;;25.40;85.00;;;;;;4971051;28;20022;-80
2023/09/03 10:29:52;;;;;;;12.18;10.23;;;25.50;84.60;;;;;;4973050;28;20022;-79
2023/09/03 10:32:19;;;;;;;12.82;9.35;;;25.70;87.90;;;;;;4971501;28;20059;-80
2023/09/03 10:34:48;;;;;;;12.10;10.07;;;25.70;88.90;;;;;;4972487;28;20027;-80
2023/09/03 10:37:16;;;;;;;10.88;8.93;;;25.90;88.10;;;;;;4971147;28;20026;-80
2023/09/03 10:39:43;;;;;;;9.93;8.63;;;26.10;85.80;;;;;;4972567;28;20039;-80
2023/09/03 10:42:17;;;;;;;10.63;8.40;;;26.10;84.80;;;;;;4972931;28;20055;-79
2023/09/03 10:44:50;;;;;;;12.75;10.07;;;26.00;86.00;;;;;;4969313;28;20582;-80
2023/09/03 10:47:18;;;;;;;243.32;143.63;;;25.90;85.30;;;;;;4963426;28;20027;-81
2023/09/03 10:49:45;;;;;;;64.28;33.88;;;25.90;86.00;;;;;;4966300;28;20066;-81
2023/09/03 10:52:43;;;;;;;10.88;9.18;;;26.10;85.90;;;;;;4968946;28;20062;-81
2023/09/03 10:55:13;;;;;;;60.88;31.92;;;26.40;85.90;;;;;;4933645;28;20043;-82
2023/09/03 10:57:39;;;;;;;11.68;9.50;;;26.50;82.80;;;;;;4968970;28;20062;-79
2023/09/03 11:00:05;;;;;;;13.95;10.02;;;26.60;82.30;;;;;;4970534;28;20031;-79
2023/09/03 11:02:32;;;;;;;11.00;9.90;;;26.40;83.20;;;;;;4968325;28;20039;-80
2023/09/03 11:05:25;;;;;;;12.77;11.48;;;26.30;85.40;;;;;;4967418;28;20030;-80
2023/09/03 11:08:29;;;;;;;11.93;10.18;;;26.30;85.80;;;;;;4967540;28;20030;-80
2023/09/03 11:10:56;;;;;;;9.95;8.93;;;26.30;86.10;;;;;;4965068;28;20122;-79
2023/09/03 11:13:22;;;;;;;11.63;9.65;;;26.20;84.10;;;;;;4969081;28;20045;-79
2023/09/03 11:15:51;;;;;;;9.45;7.60;;;26.20;83.30;;;;;;4966393;28;20030;-79
2023/09/03 11:18:19;;;;;;;11.18;8.43;;;25.90;83.40;;;;;;4965830;28;20015;-80
2023/09/03 11:20:46;;;;;;;9.98;8.98;;;25.60;83.00;;;;;;4967072;28;20528;-80
2023/09/03 11:23:11;;;;;;;8.60;7.25;;;25.30;83.40;;;;;;4964566;28;20027;-79
2023/09/03 11:25:38;;;;;;;9.10;7.63;;;25.10;83.00;;;;;;4967578;28;20027;-80
2023/09/03 11:28:07;;;;;;;10.50;7.78;;;25.20;83.20;;;;;;4968631;28;20191;-80
2023/09/03 11:30:35;;;;;;;9.93;6.85;;;25.30;82.00;;;;;;4971199;28;20570;-80
2023/09/03 11:33:01;;;;;;;7.95;5.70;;;25.40;80.00;;;;;;4973674;28;20027;-80
2023/09/03 11:35:27;;;;;;;8.15;6.57;;;25.50;78.60;;;;;;4974450;28;20019;-80
2023/09/03 11:37:53;;;;;;;9.52;6.60;;;25.60;80.00;;;;;;4976112;28;20037;-80
2023/09/03 11:40:23;;;;;;;8.68;6.45;;;25.60;82.20;;;;;;4986192;28;20022;-80
2023/09/03 11:42:50;;;;;;;8.43;6.40;;;25.70;81.70;;;;;;4992250;28;20027;-80
2023/09/03 11:45:16;;;;;;;10.18;6.45;;;25.70;82.40;;;;;;4974088;28;20019;-80
2023/09/03 11:47:49;;;;;;;7.75;6.95;;;25.90;83.70;;;;;;4969737;28;20407;-80
2023/09/03 11:50:15;;;;;;;;;;;26.00;81.70;;;;;;4972010;28;20038;-79
2023/09/03 11:52:54;;;;;;;8.27;5.43;;;26.00;81.70;;;;;;4969440;28;19918;-79
2023/09/03 11:55:30;;;;;;;8.55;5.65;;;25.80;81.00;;;;;;4969948;28;20422;-79
2023/09/03 11:58:00;;;;;;;4.20;3.90;;;25.80;79.60;;;;;;4969952;28;20103;-80
2023/09/03 12:00:26;;;;;;;4.80;4.38;;;25.80;79.70;;;;;;4970935;28;20027;-79
2023/09/03 12:02:54;;;;;;;7.45;4.18;;;25.80;80.70;;;;;;4970151;28;20066;-79
2023/09/03 12:05:20;;;;;;;5.82;5.28;;;25.90;81.20;;;;;;4979367;28;20019;-80
2023/09/03 12:07:46;;;;;;;4.38;4.07;;;25.90;80.10;;;;;;4970340;28;20035;-80
2023/09/03 12:10:18;;;;;;;5.28;4.30;;;25.90;78.40;;;;;;4966128;28;20039;-79
2023/09/03 12:12:44;;;;;;;4.28;3.90;;;26.10;77.40;;;;;;4969671;28;20033;-79
2023/09/03 12:15:21;;;;;;;3.70;3.40;;;26.20;77.90;;;;;;4969506;28;20045;-79
2023/09/03 12:17:47;;;;;;;4.60;3.85;;;26.40;79.70;;;;;;4972305;28;20723;-79
2023/09/03 12:20:37;;;;;;;4.43;4.07;;;26.60;80.30;;;;;;4975356;28;20031;-80
2023/09/03 12:23:16;;;;;;;3.60;3.33;;;26.80;76.80;;;;;;4969956;28;20105;-79
2023/09/03 12:25:42;;;;;;;4.22;3.70;;;26.90;76.00;;;;;;4969163;28;20031;-79
2023/09/03 12:28:09;;;;;;;5.05;4.00;;;27.00;73.50;;;;;;4968838;28;20014;-79
2023/09/03 12:31:01;;;;;;;4.45;3.78;;;27.10;75.60;;;;;;4967892;28;20015;-79
2023/09/03 12:33:42;;;;;;;3.80;3.50;;;27.10;78.20;;;;;;4968845;28;20031;-80
2023/09/03 12:36:08;;;;;;;4.13;3.63;;;27.20;76.30;;;;;;4973207;28;20019;-80